sensor_id;sensor_type;location;lat;lon;timestamp;pressure;altitude;pressure_sealevel;temperature;humidity
3544;BME280;1786;52.870;9.578;2022-07-23T00:00:14;100879.69;;;31.85;43.61
3544;BME280;1786;52.870;9.578;2022-07-23T00:02:41;100880.16;;;31.82;43.52
3544;BME280;1786;52.870;9.578;2022-07-23T00:05:09;100880.63;;;31.79;43.27
3544;BME280;1786;52.870;9.578;2022-07-23T00:07:37;100887.72;;;31.68;43.38
3544;BME280;1786;52.870;9.578;2022-07-23T00:10:04;100882.69;;;31.46;43.68
3544;BME280;1786;52.870;9.578;2022-07-23T00:12:31;100883.88;;;31.14;44.18
3544;BME280;1786;52.870;9.578;2022-07-23T00:14:58;100874.50;;;31.28;43.76
3544;BME280;1786;52.870;9.578;2022-07-23T00:17:25;100880.28;;;31.38;43.38
3544;BME280;1786;52.870;9.578;2022-07-23T00:19:52;100891.63;;;31.35;43.61
3544;BME280;1786;52.870;9.578;2022-07-23T00:22:20;100894.53;;;30.97;44.01
3544;BME280;1786;52.870;9.578;2022-07-23T00:24:47;100882.31;;;30.99;43.75
3544;BME280;1786;52.870;9.578;2022-07-23T00:27:34;100883.19;;;31.00;43.57
3544;BME280;1786;52.870;9.578;2022-07-23T00:30:00;100886.88;;;30.87;43.37
3544;BME280;1786;52.870;9.578;2022-07-23T00:32:27;100869.91;;;30.85;43.61
3544;BME280;1786;52.870;9.578;2022-07-23T00:35:14;100869.28;;;30.83;43.31
3544;BME280;1786;52.870;9.578;2022-07-23T00:37:42;100877.56;;;30.70;43.51
3544;BME280;1786;52.870;9.578;2022-07-23T00:40:10;100877.56;;;30.70;43.76
3544;BME280;1786;52.870;9.578;2022-07-23T00:42:37;100877.28;;;30.53;43.69
3544;BME280;1786;52.870;9.578;2022-07-23T00:45:05;100872.81;;;30.58;43.45
3544;BME280;1786;52.870;9.578;2022-07-23T00:47:32;100876.69;;;30.44;44.19
3544;BME280;1786;52.870;9.578;2022-07-23T00:49:59;100876.53;;;30.39;43.93
3544;BME280;1786;52.870;9.578;2022-07-23T00:52:25;100870.38;;;30.50;43.98
3544;BME280;1786;52.870;9.578;2022-07-23T00:54:52;100875.75;;;30.32;43.80
3544;BME280;1786;52.870;9.578;2022-07-23T00:57:19;100880.44;;;30.50;43.47
3544;BME280;1786;52.870;9.578;2022-07-23T00:59:52;100887.22;;;30.40;43.45
3544;BME280;1786;52.870;9.578;2022-07-23T01:02:20;100883.22;;;29.66;44.93
3544;BME280;1786;52.870;9.578;2022-07-23T01:04:47;100882.81;;;29.49;45.19
3544;BME280;1786;52.870;9.578;2022-07-23T01:07:13;100885.06;;;29.72;44.72
3544;BME280;1786;52.870;9.578;2022-07-23T01:09:41;100884.47;;;29.57;45.53
3544;BME280;1786;52.870;9.578;2022-07-23T01:12:08;100880.63;;;29.85;44.89
3544;BME280;1786;52.870;9.578;2022-07-23T01:14:35;100872.19;;;30.56;43.43
3544;BME280;1786;52.870;9.578;2022-07-23T01:17:02;100878.72;;;30.55;43.40
3544;BME280;1786;52.870;9.578;2022-07-23T01:19:29;100870.34;;;29.80;44.19
3544;BME280;1786;52.870;9.578;2022-07-23T01:21:58;100876.09;;;29.65;44.59
3544;BME280;1786;52.870;9.578;2022-07-23T01:24:27;100870.66;;;29.52;44.75
3544;BME280;1786;52.870;9.578;2022-07-23T01:27:00;100861.63;;;29.58;45.26
3544;BME280;1786;52.870;9.578;2022-07-23T01:29:26;100855.22;;;29.39;45.72
3544;BME280;1786;52.870;9.578;2022-07-23T01:31:54;100852.66;;;29.51;45.72
3544;BME280;1786;52.870;9.578;2022-07-23T01:34:22;100857.88;;;30.04;45.19
3544;BME280;1786;52.870;9.578;2022-07-23T01:36:48;100859.00;;;30.28;44.43
3544;BME280;1786;52.870;9.578;2022-07-23T01:39:16;100844.59;;;30.14;44.37
3544;BME280;1786;52.870;9.578;2022-07-23T01:41:43;100846.53;;;30.07;45.03
3544;BME280;1786;52.870;9.578;2022-07-23T01:44:16;100847.13;;;29.71;44.67
3544;BME280;1786;52.870;9.578;2022-07-23T01:46:44;100834.47;;;29.90;44.83
3544;BME280;1786;52.870;9.578;2022-07-23T01:49:11;100839.25;;;29.56;45.40
3544;BME280;1786;52.870;9.578;2022-07-23T01:51:56;100836.19;;;30.16;44.32
3544;BME280;1786;52.870;9.578;2022-07-23T01:54:37;100848.53;;;30.18;44.06
3544;BME280;1786;52.870;9.578;2022-07-23T01:57:08;100848.03;;;30.35;43.86
3544;BME280;1786;52.870;9.578;2022-07-23T01:59:36;100853.25;;;30.61;42.80
3544;BME280;1786;52.870;9.578;2022-07-23T02:02:04;100847.06;;;30.54;43.45
3544;BME280;1786;52.870;9.578;2022-07-23T02:04:32;100856.88;;;30.24;43.71
3544;BME280;1786;52.870;9.578;2022-07-23T02:07:04;100850.06;;;30.14;44.11
3544;BME280;1786;52.870;9.578;2022-07-23T02:09:31;100853.31;;;29.40;45.29
3544;BME280;1786;52.870;9.578;2022-07-23T02:11:58;100841.00;;;29.30;45.50
3544;BME280;1786;52.870;9.578;2022-07-23T02:14:25;100845.22;;;29.26;45.61
3544;BME280;1786;52.870;9.578;2022-07-23T02:16:52;100838.75;;;29.14;45.90
3544;BME280;1786;52.870;9.578;2022-07-23T02:19:19;100831.44;;;29.08;45.77
3544;BME280;1786;52.870;9.578;2022-07-23T02:21:46;100835.38;;;29.77;44.78
3544;BME280;1786;52.870;9.578;2022-07-23T02:24:12;100836.06;;;30.04;44.93
3544;BME280;1786;52.870;9.578;2022-07-23T02:27:01;100836.34;;;29.51;45.60
3544;BME280;1786;52.870;9.578;2022-07-23T02:29:28;100839.00;;;29.06;46.38
3544;BME280;1786;52.870;9.578;2022-07-23T02:31:55;100836.66;;;29.09;46.68
3544;BME280;1786;52.870;9.578;2022-07-23T02:34:21;100832.88;;;29.17;46.04
3544;BME280;1786;52.870;9.578;2022-07-23T02:36:49;100820.13;;;29.11;46.55
3544;BME280;1786;52.870;9.578;2022-07-23T02:39:16;100820.53;;;28.95;46.54
3544;BME280;1786;52.870;9.578;2022-07-23T02:41:43;100829.81;;;29.52;46.30
3544;BME280;1786;52.870;9.578;2022-07-23T02:44:09;100821.84;;;29.95;45.51
3544;BME280;1786;52.870;9.578;2022-07-23T02:46:36;100821.38;;;30.05;44.84
3544;BME280;1786;52.870;9.578;2022-07-23T02:49:05;100825.22;;;29.91;45.01
3544;BME280;1786;52.870;9.578;2022-07-23T02:51:33;100825.47;;;29.89;45.06
3544;BME280;1786;52.870;9.578;2022-07-23T02:54:03;100823.22;;;30.11;44.52
3544;BME280;1786;52.870;9.578;2022-07-23T02:56:30;100823.47;;;30.03;45.41
3544;BME280;1786;52.870;9.578;2022-07-23T02:58:56;100825.44;;;30.28;45.10
3544;BME280;1786;52.870;9.578;2022-07-23T03:01:24;100826.69;;;30.32;44.89
3544;BME280;1786;52.870;9.578;2022-07-23T03:03:51;100820.16;;;30.58;44.21
3544;BME280;1786;52.870;9.578;2022-07-23T03:06:20;100816.97;;;30.61;44.68
3544;BME280;1786;52.870;9.578;2022-07-23T03:08:48;100819.88;;;30.66;44.63
3544;BME280;1786;52.870;9.578;2022-07-23T03:11:15;100820.84;;;30.72;44.23
3544;BME280;1786;52.870;9.578;2022-07-23T03:13:45;100811.63;;;30.73;44.34
3544;BME280;1786;52.870;9.578;2022-07-23T03:16:11;100802.78;;;30.77;44.13
3544;BME280;1786;52.870;9.578;2022-07-23T03:18:38;100806.66;;;30.88;43.95
3544;BME280;1786;52.870;9.578;2022-07-23T03:21:07;100807.97;;;30.86;44.83
3544;BME280;1786;52.870;9.578;2022-07-23T03:23:34;100796.22;;;30.85;44.42
3544;BME280;1786;52.870;9.578;2022-07-23T03:26:01;100795.81;;;30.56;45.11
3544;BME280;1786;52.870;9.578;2022-07-23T03:28:28;100789.00;;;30.47;45.21
3544;BME280;1786;52.870;9.578;2022-07-23T03:30:55;100795.88;;;29.93;46.20
3544;BME280;1786;52.870;9.578;2022-07-23T03:33:22;100799.44;;;29.55;46.62
3544;BME280;1786;52.870;9.578;2022-07-23T03:35:49;100792.97;;;29.49;46.56
3544;BME280;1786;52.870;9.578;2022-07-23T03:38:27;100800.69;;;29.52;46.64
3544;BME280;1786;52.870;9.578;2022-07-23T03:40:54;100801.06;;;29.69;46.55
3544;BME280;1786;52.870;9.578;2022-07-23T03:43:21;100797.63;;;29.36;47.73
3544;BME280;1786;52.870;9.578;2022-07-23T03:45:48;100805.69;;;29.62;46.88
3544;BME280;1786;52.870;9.578;2022-07-23T03:48:14;100786.50;;;29.89;46.94
3544;BME280;1786;52.870;9.578;2022-07-23T03:50:43;100783.91;;;29.69;46.70
3544;BME280;1786;52.870;9.578;2022-07-23T03:53:10;100796.44;;;29.63;47.33
3544;BME280;1786;52.870;9.578;2022-07-23T03:55:36;100784.72;;;29.69;46.92
3544;BME280;1786;52.870;9.578;2022-07-23T03:58:03;100785.53;;;29.76;46.50
3544;BME280;1786;52.870;9.578;2022-07-23T04:00:30;100794.34;;;30.04;46.14
3544;BME280;1786;52.870;9.578;2022-07-23T04:02:56;100792.59;;;30.41;45.96
3544;BME280;1786;52.870;9.578;2022-07-23T04:05:23;100788.09;;;30.28;45.68
3544;BME280;1786;52.870;9.578;2022-07-23T04:07:55;100800.72;;;30.23;46.33
3544;BME280;1786;52.870;9.578;2022-07-23T04:10:23;100798.53;;;30.56;46.03
3544;BME280;1786;52.870;9.578;2022-07-23T04:12:50;100803.25;;;30.17;46.69
3544;BME280;1786;52.870;9.578;2022-07-23T04:15:17;100821.09;;;30.45;45.82
3544;BME280;1786;52.870;9.578;2022-07-23T04:17:43;100810.19;;;30.45;46.46
3544;BME280;1786;52.870;9.578;2022-07-23T04:20:11;100823.25;;;30.87;45.87
3544;BME280;1786;52.870;9.578;2022-07-23T04:22:45;100819.50;;;30.62;45.92
3544;BME280;1786;52.870;9.578;2022-07-23T04:25:13;100831.69;;;30.35;47.15
3544;BME280;1786;52.870;9.578;2022-07-23T04:27:44;100835.97;;;30.24;46.94
3544;BME280;1786;52.870;9.578;2022-07-23T04:30:11;100838.34;;;30.39;46.96
3544;BME280;1786;52.870;9.578;2022-07-23T04:32:37;100844.06;;;29.99;47.47
3544;BME280;1786;52.870;9.578;2022-07-23T04:35:12;100844.56;;;30.96;45.92
3544;BME280;1786;52.870;9.578;2022-07-23T04:37:39;100856.00;;;31.30;45.91
3544;BME280;1786;52.870;9.578;2022-07-23T04:40:06;100861.16;;;31.57;45.36
3544;BME280;1786;52.870;9.578;2022-07-23T04:42:33;100850.06;;;31.33;45.04
3544;BME280;1786;52.870;9.578;2022-07-23T04:44:59;100852.19;;;31.68;44.45
3544;BME280;1786;52.870;9.578;2022-07-23T04:47:26;100851.16;;;31.51;45.18
3544;BME280;1786;52.870;9.578;2022-07-23T04:49:56;100854.50;;;31.53;44.52
3544;BME280;1786;52.870;9.578;2022-07-23T04:52:24;100854.50;;;31.53;44.40
3544;BME280;1786;52.870;9.578;2022-07-23T04:54:51;100843.31;;;31.36;44.85
3544;BME280;1786;52.870;9.578;2022-07-23T04:57:17;100844.66;;;31.26;44.97
3544;BME280;1786;52.870;9.578;2022-07-23T04:59:45;100840.81;;;31.16;44.89
3544;BME280;1786;52.870;9.578;2022-07-23T05:02:12;100844.47;;;31.46;44.81
3544;BME280;1786;52.870;9.578;2022-07-23T05:04:39;100840.84;;;31.53;43.97
3544;BME280;1786;52.870;9.578;2022-07-23T05:07:06;100843.41;;;31.47;44.40
3544;BME280;1786;52.870;9.578;2022-07-23T05:09:33;100848.38;;;31.69;44.07
3544;BME280;1786;52.870;9.578;2022-07-23T05:12:00;100842.56;;;31.29;44.09
3544;BME280;1786;52.870;9.578;2022-07-23T05:14:28;100844.47;;;31.46;43.87
3544;BME280;1786;52.870;9.578;2022-07-23T05:16:55;100846.09;;;31.29;44.04
3544;BME280;1786;52.870;9.578;2022-07-23T05:19:22;100838.13;;;30.66;45.31
3544;BME280;1786;52.870;9.578;2022-07-23T05:21:51;100833.09;;;28.09;50.66
3544;BME280;1786;52.870;9.578;2022-07-23T05:24:18;100829.22;;;26.94;54.38
3544;BME280;1786;52.870;9.578;2022-07-23T05:26:45;100829.47;;;26.99;55.51
3544;BME280;1786;52.870;9.578;2022-07-23T05:29:12;100832.66;;;27.09;55.31
3544;BME280;1786;52.870;9.578;2022-07-23T05:31:39;100832.34;;;27.26;54.68
3544;BME280;1786;52.870;9.578;2022-07-23T05:34:06;100839.63;;;27.67;54.47
3544;BME280;1786;52.870;9.578;2022-07-23T05:36:34;100840.16;;;27.90;54.39
3544;BME280;1786;52.870;9.578;2022-07-23T05:39:02;100841.13;;;28.51;53.29
3544;BME280;1786;52.870;9.578;2022-07-23T05:41:33;100852.41;;;29.59;53.34
3544;BME280;1786;52.870;9.578;2022-07-23T05:44:01;100862.63;;;33.73;45.45
3544;BME280;1786;52.870;9.578;2022-07-23T05:46:29;100872.59;;;35.65;41.43
3544;BME280;1786;52.870;9.578;2022-07-23T05:49:02;100872.06;;;35.07;43.14
3544;BME280;1786;52.870;9.578;2022-07-23T05:51:52;100877.47;;;35.85;42.59
3544;BME280;1786;52.870;9.578;2022-07-23T05:54:28;100885.63;;;36.93;40.75
3544;BME280;1786;52.870;9.578;2022-07-23T05:56:55;100896.25;;;37.70;38.46
3544;BME280;1786;52.870;9.578;2022-07-23T05:59:23;100893.09;;;37.40;38.69
3544;BME280;1786;52.870;9.578;2022-07-23T06:01:50;100883.22;;;37.02;41.04
3544;BME280;1786;52.870;9.578;2022-07-23T06:04:17;100879.41;;;37.61;40.14
3544;BME280;1786;52.870;9.578;2022-07-23T06:06:55;100894.22;;;38.48;38.87
3544;BME280;1786;52.870;9.578;2022-07-23T06:09:22;100907.25;;;39.69;37.43
3544;BME280;1786;52.870;9.578;2022-07-23T06:11:48;100912.97;;;40.96;35.16
3544;BME280;1786;52.870;9.578;2022-07-23T06:14:15;100903.88;;;41.44;35.50
3544;BME280;1786;52.870;9.578;2022-07-23T06:16:54;100916.44;;;44.21;32.08
3544;BME280;1786;52.870;9.578;2022-07-23T06:19:21;100921.09;;;45.10;31.11
3544;BME280;1786;52.870;9.578;2022-07-23T06:21:48;100920.56;;;45.00;31.11
3544;BME280;1786;52.870;9.578;2022-07-23T06:24:16;100922.63;;;44.63;31.54
3544;BME280;1786;52.870;9.578;2022-07-23T06:26:43;100919.78;;;44.09;31.21
3544;BME280;1786;52.870;9.578;2022-07-23T06:29:11;100919.31;;;42.96;32.67
3544;BME280;1786;52.870;9.578;2022-07-23T06:31:38;100922.44;;;42.62;32.44
3544;BME280;1786;52.870;9.578;2022-07-23T06:34:05;100935.94;;;42.36;33.39
3544;BME280;1786;52.870;9.578;2022-07-23T06:36:34;100920.69;;;40.75;34.28
3544;BME280;1786;52.870;9.578;2022-07-23T06:39:02;100919.75;;;40.51;34.77
3544;BME280;1786;52.870;9.578;2022-07-23T06:41:29;100918.63;;;40.52;34.46
3544;BME280;1786;52.870;9.578;2022-07-23T06:43:56;100922.53;;;40.51;34.58
3544;BME280;1786;52.870;9.578;2022-07-23T06:46:23;100925.00;;;41.16;35.47
3544;BME280;1786;52.870;9.578;2022-07-23T06:48:50;100927.59;;;42.36;33.94
3544;BME280;1786;52.870;9.578;2022-07-23T06:51:31;100932.13;;;44.17;31.31
3544;BME280;1786;52.870;9.578;2022-07-23T06:54:00;100949.13;;;43.93;31.41
3544;BME280;1786;52.870;9.578;2022-07-23T06:56:27;100938.25;;;44.05;31.38
3544;BME280;1786;52.870;9.578;2022-07-23T06:58:53;100941.91;;;43.09;31.85
3544;BME280;1786;52.870;9.578;2022-07-23T07:01:20;100939.47;;;43.21;31.54
3544;BME280;1786;52.870;9.578;2022-07-23T07:03:48;100935.75;;;42.46;32.81
3544;BME280;1786;52.870;9.578;2022-07-23T07:06:16;100934.66;;;41.42;33.74
3544;BME280;1786;52.870;9.578;2022-07-23T07:08:42;100930.88;;;40.01;35.52
3544;BME280;1786;52.870;9.578;2022-07-23T07:11:10;100929.53;;;39.93;34.99
3544;BME280;1786;52.870;9.578;2022-07-23T07:13:38;100932.28;;;40.77;35.00
3544;BME280;1786;52.870;9.578;2022-07-23T07:16:04;100939.84;;;41.97;33.59
3544;BME280;1786;52.870;9.578;2022-07-23T07:18:31;100938.31;;;42.75;31.90
3544;BME280;1786;52.870;9.578;2022-07-23T07:20:58;100938.25;;;42.10;33.11
3544;BME280;1786;52.870;9.578;2022-07-23T07:23:24;100937.66;;;40.93;34.01
3544;BME280;1786;52.870;9.578;2022-07-23T07:25:51;100933.75;;;41.52;33.67
3544;BME280;1786;52.870;9.578;2022-07-23T07:28:18;100932.88;;;41.76;32.97
3544;BME280;1786;52.870;9.578;2022-07-23T07:30:44;100935.97;;;41.74;33.52
3544;BME280;1786;52.870;9.578;2022-07-23T07:33:11;100935.84;;;41.60;33.61
3544;BME280;1786;52.870;9.578;2022-07-23T07:35:38;100931.91;;;41.85;33.13
3544;BME280;1786;52.870;9.578;2022-07-23T07:38:05;100937.03;;;42.16;32.25
3544;BME280;1786;52.870;9.578;2022-07-23T07:40:31;100931.25;;;41.26;33.05
3544;BME280;1786;52.870;9.578;2022-07-23T07:42:59;100923.00;;;39.69;34.27
3544;BME280;1786;52.870;9.578;2022-07-23T07:45:28;100925.44;;;38.74;35.87
3544;BME280;1786;52.870;9.578;2022-07-23T07:47:55;100921.50;;;38.29;36.60
3544;BME280;1786;52.870;9.578;2022-07-23T07:50:22;100922.88;;;38.12;36.66
3544;BME280;1786;52.870;9.578;2022-07-23T07:52:49;100930.41;;;38.57;35.69
3544;BME280;1786;52.870;9.578;2022-07-23T07:55:15;100928.16;;;38.34;35.72
3544;BME280;1786;52.870;9.578;2022-07-23T07:57:43;100921.84;;;37.55;36.89
3544;BME280;1786;52.870;9.578;2022-07-23T08:00:15;100921.50;;;36.66;37.35
3544;BME280;1786;52.870;9.578;2022-07-23T08:02:47;100917.00;;;35.18;38.46
3544;BME280;1786;52.870;9.578;2022-07-23T08:05:21;100904.06;;;34.79;39.29
3544;BME280;1786;52.870;9.578;2022-07-23T08:07:55;100905.38;;;34.43;39.78
3544;BME280;1786;52.870;9.578;2022-07-23T08:10:22;100914.22;;;34.62;39.43
3544;BME280;1786;52.870;9.578;2022-07-23T08:12:51;100919.19;;;34.65;40.14
3544;BME280;1786;52.870;9.578;2022-07-23T08:15:19;100920.06;;;34.65;39.06
3544;BME280;1786;52.870;9.578;2022-07-23T08:17:47;100922.78;;;34.20;39.73
3544;BME280;1786;52.870;9.578;2022-07-23T08:20:16;100913.97;;;34.35;40.51
3544;BME280;1786;52.870;9.578;2022-07-23T08:22:50;100925.91;;;34.12;40.55
3544;BME280;1786;52.870;9.578;2022-07-23T08:25:21;100915.50;;;33.85;40.49
3544;BME280;1786;52.870;9.578;2022-07-23T08:27:48;100919.00;;;33.69;40.97
3544;BME280;1786;52.870;9.578;2022-07-23T08:30:16;100918.53;;;34.00;39.71
3544;BME280;1786;52.870;9.578;2022-07-23T08:32:55;100919.09;;;33.74;41.57
3544;BME280;1786;52.870;9.578;2022-07-23T08:35:28;100929.09;;;34.66;40.19
3544;BME280;1786;52.870;9.578;2022-07-23T08:37:55;100927.91;;;34.45;39.85
3544;BME280;1786;52.870;9.578;2022-07-23T08:40:25;100926.66;;;35.20;38.82
3544;BME280;1786;52.870;9.578;2022-07-23T08:42:53;100931.53;;;35.35;38.49
3544;BME280;1786;52.870;9.578;2022-07-23T08:45:21;100935.34;;;34.78;39.09
3544;BME280;1786;52.870;9.578;2022-07-23T08:47:53;100925.63;;;34.25;38.96
3544;BME280;1786;52.870;9.578;2022-07-23T08:50:21;100923.84;;;33.90;40.15
3544;BME280;1786;52.870;9.578;2022-07-23T08:52:49;100926.63;;;33.67;40.88
3544;BME280;1786;52.870;9.578;2022-07-23T08:55:18;100927.22;;;33.69;40.65
3544;BME280;1786;52.870;9.578;2022-07-23T08:57:47;100927.91;;;33.76;40.05
3544;BME280;1786;52.870;9.578;2022-07-23T09:00:15;100924.38;;;34.04;39.57
3544;BME280;1786;52.870;9.578;2022-07-23T09:02:43;100934.44;;;33.87;40.75
3544;BME280;1786;52.870;9.578;2022-07-23T09:05:12;100927.44;;;33.79;41.31
3544;BME280;1786;52.870;9.578;2022-07-23T09:08:08;100924.03;;;33.48;41.84
3544;BME280;1786;52.870;9.578;2022-07-23T09:10:57;100922.97;;;33.49;40.18
3544;BME280;1786;52.870;9.578;2022-07-23T09:16:28;100917.25;;;33.39;39.86
3544;BME280;1786;52.870;9.578;2022-07-23T09:19:05;100923.00;;;33.02;40.76
3544;BME280;1786;52.870;9.578;2022-07-23T09:21:36;100929.00;;;32.57;40.86
3544;BME280;1786;52.870;9.578;2022-07-23T09:24:12;100920.44;;;32.65;41.30
3544;BME280;1786;52.870;9.578;2022-07-23T09:26:45;100922.94;;;32.67;41.59
3544;BME280;1786;52.870;9.578;2022-07-23T09:29:19;100918.09;;;33.16;41.58
3544;BME280;1786;52.870;9.578;2022-07-23T09:31:51;100927.03;;;33.47;42.02
3544;BME280;1786;52.870;9.578;2022-07-23T09:34:21;100928.09;;;34.26;38.83
3544;BME280;1786;52.870;9.578;2022-07-23T09:36:52;100927.97;;;34.33;38.78
3544;BME280;1786;52.870;9.578;2022-07-23T09:39:28;100927.88;;;34.90;37.30
3544;BME280;1786;52.870;9.578;2022-07-23T09:41:56;100920.53;;;35.13;36.54
3544;BME280;1786;52.870;9.578;2022-07-23T09:44:24;100929.47;;;35.25;36.63
3544;BME280;1786;52.870;9.578;2022-07-23T09:46:58;100923.72;;;34.88;37.40
3544;BME280;1786;52.870;9.578;2022-07-23T09:49:25;100927.00;;;34.90;38.25
3544;BME280;1786;52.870;9.578;2022-07-23T09:51:57;100923.66;;;35.05;37.09
3544;BME280;1786;52.870;9.578;2022-07-23T09:56:54;100923.22;;;34.29;36.90
3544;BME280;1786;52.870;9.578;2022-07-23T09:59:27;100932.88;;;33.15;38.75
3544;BME280;1786;52.870;9.578;2022-07-23T10:01:55;100933.44;;;33.29;40.02
3544;BME280;1786;52.870;9.578;2022-07-23T10:04:23;100934.28;;;34.34;40.26
3544;BME280;1786;52.870;9.578;2022-07-23T10:07:10;100929.28;;;34.31;37.91
3544;BME280;1786;52.870;9.578;2022-07-23T10:09:56;100928.69;;;34.74;37.56
3544;BME280;1786;52.870;9.578;2022-07-23T10:12:47;100931.13;;;34.71;40.12
3544;BME280;1786;52.870;9.578;2022-07-23T10:15:18;100937.25;;;34.95;38.33
3544;BME280;1786;52.870;9.578;2022-07-23T10:17:45;100933.44;;;34.96;36.20
3544;BME280;1786;52.870;9.578;2022-07-23T10:20:12;100939.47;;;34.98;36.89
3544;BME280;1786;52.870;9.578;2022-07-23T10:22:42;100941.44;;;34.80;37.55
3544;BME280;1786;52.870;9.578;2022-07-23T10:28:29;100942.38;;;34.12;38.33
3544;BME280;1786;52.870;9.578;2022-07-23T10:31:10;100936.81;;;33.95;37.69
3544;BME280;1786;52.870;9.578;2022-07-23T10:36:59;100932.84;;;33.50;40.12
3544;BME280;1786;52.870;9.578;2022-07-23T10:39:33;100940.22;;;34.14;39.46
3544;BME280;1786;52.870;9.578;2022-07-23T10:44:44;100948.94;;;34.56;37.70
3544;BME280;1786;52.870;9.578;2022-07-23T10:47:13;100948.59;;;34.36;38.09
3544;BME280;1786;52.870;9.578;2022-07-23T10:50:23;100943.47;;;35.07;38.43
3544;BME280;1786;52.870;9.578;2022-07-23T10:55:39;100940.44;;;34.41;39.21
3544;BME280;1786;52.870;9.578;2022-07-23T10:58:06;100945.47;;;33.63;39.63
3544;BME280;1786;52.870;9.578;2022-07-23T11:00:35;100950.75;;;33.29;40.16
3544;BME280;1786;52.870;9.578;2022-07-23T11:03:05;100949.66;;;33.30;41.60
3544;BME280;1786;52.870;9.578;2022-07-23T11:05:50;100947.31;;;33.86;38.58
3544;BME280;1786;52.870;9.578;2022-07-23T11:08:18;100955.53;;;33.98;39.35
3544;BME280;1786;52.870;9.578;2022-07-23T11:24:16;100958.13;;;34.62;38.45
3544;BME280;1786;52.870;9.578;2022-07-23T11:26:58;100951.47;;;35.25;37.36
3544;BME280;1786;52.870;9.578;2022-07-23T11:32:02;100953.31;;;34.69;36.63
3544;BME280;1786;52.870;9.578;2022-07-23T11:34:33;100956.81;;;34.81;36.92
3544;BME280;1786;52.870;9.578;2022-07-23T11:37:02;100955.50;;;34.38;36.81
3544;BME280;1786;52.870;9.578;2022-07-23T11:39:32;100944.63;;;33.39;37.88
3544;BME280;1786;52.870;9.578;2022-07-23T11:42:00;100939.25;;;33.79;37.57
3544;BME280;1786;52.870;9.578;2022-07-23T11:44:32;100943.25;;;34.29;37.24
3544;BME280;1786;52.870;9.578;2022-07-23T11:47:05;100951.75;;;34.73;36.79
3544;BME280;1786;52.870;9.578;2022-07-23T11:49:32;100945.84;;;34.81;36.94
3544;BME280;1786;52.870;9.578;2022-07-23T11:52:11;100950.56;;;34.86;37.00
3544;BME280;1786;52.870;9.578;2022-07-23T11:54:53;100952.25;;;35.43;35.60
3544;BME280;1786;52.870;9.578;2022-07-23T11:57:24;100948.28;;;35.72;36.61
3544;BME280;1786;52.870;9.578;2022-07-23T11:59:55;100951.84;;;35.51;35.08
3544;BME280;1786;52.870;9.578;2022-07-23T12:02:22;100956.09;;;35.42;35.41
3544;BME280;1786;52.870;9.578;2022-07-23T12:04:50;100958.91;;;35.08;35.43
3544;BME280;1786;52.870;9.578;2022-07-23T12:09:52;100957.22;;;34.28;36.34
3544;BME280;1786;52.870;9.578;2022-07-23T12:12:20;100956.31;;;33.70;36.79
3544;BME280;1786;52.870;9.578;2022-07-23T12:14:58;100953.47;;;33.65;37.16
3544;BME280;1786;52.870;9.578;2022-07-23T12:17:33;100951.50;;;33.89;36.17
3544;BME280;1786;52.870;9.578;2022-07-23T12:20:04;100948.63;;;33.95;36.96
3544;BME280;1786;52.870;9.578;2022-07-23T12:22:41;100949.53;;;33.25;37.46
3544;BME280;1786;52.870;9.578;2022-07-23T12:25:17;100943.25;;;33.25;37.94
3544;BME280;1786;52.870;9.578;2022-07-23T12:27:45;100945.97;;;33.25;38.64
3544;BME280;1786;52.870;9.578;2022-07-23T12:32:49;100949.25;;;33.74;37.24
3544;BME280;1786;52.870;9.578;2022-07-23T12:35:16;100951.44;;;33.60;37.63
3544;BME280;1786;52.870;9.578;2022-07-23T12:37:45;100947.88;;;33.59;37.85
3544;BME280;1786;52.870;9.578;2022-07-23T12:40:30;100945.38;;;33.98;36.59
3544;BME280;1786;52.870;9.578;2022-07-23T12:43:01;100955.72;;;34.20;37.57
3544;BME280;1786;52.870;9.578;2022-07-23T12:45:45;100951.94;;;34.55;37.32
3544;BME280;1786;52.870;9.578;2022-07-23T12:48:33;100951.94;;;34.38;37.46
3544;BME280;1786;52.870;9.578;2022-07-23T12:51:05;100944.50;;;35.01;36.24
3544;BME280;1786;52.870;9.578;2022-07-23T12:53:37;100952.75;;;34.84;36.43
3544;BME280;1786;52.870;9.578;2022-07-23T12:56:11;100960.13;;;34.66;36.47
3544;BME280;1786;52.870;9.578;2022-07-23T12:58:50;100962.94;;;34.26;36.64
3544;BME280;1786;52.870;9.578;2022-07-23T13:06:21;100952.59;;;34.16;36.12
3544;BME280;1786;52.870;9.578;2022-07-23T13:08:49;100950.91;;;34.44;36.95
3544;BME280;1786;52.870;9.578;2022-07-23T13:11:19;100952.69;;;34.50;36.76
3544;BME280;1786;52.870;9.578;2022-07-23T13:13:45;100942.81;;;35.00;37.37
3544;BME280;1786;52.870;9.578;2022-07-23T13:16:14;100965.28;;;34.80;37.70
3544;BME280;1786;52.870;9.578;2022-07-23T13:18:41;100958.19;;;34.50;35.83
3544;BME280;1786;52.870;9.578;2022-07-23T13:21:08;100965.47;;;34.44;35.79
3544;BME280;1786;52.870;9.578;2022-07-23T13:23:35;100962.72;;;33.87;37.05
3544;BME280;1786;52.870;9.578;2022-07-23T13:26:03;100955.09;;;32.95;37.75
3544;BME280;1786;52.870;9.578;2022-07-23T13:28:29;100960.63;;;33.42;37.63
3544;BME280;1786;52.870;9.578;2022-07-23T13:30:56;100969.66;;;34.07;38.76
3544;BME280;1786;52.870;9.578;2022-07-23T13:33:24;100960.06;;;34.50;37.24
3544;BME280;1786;52.870;9.578;2022-07-23T13:35:53;100961.66;;;34.45;36.84
3544;BME280;1786;52.870;9.578;2022-07-23T13:38:22;100951.16;;;33.73;36.66
3544;BME280;1786;52.870;9.578;2022-07-23T13:40:50;100939.19;;;33.15;37.45
3544;BME280;1786;52.870;9.578;2022-07-23T13:43:20;100956.19;;;34.17;38.16
3544;BME280;1786;52.870;9.578;2022-07-23T13:45:49;100949.72;;;34.23;36.67
3544;BME280;1786;52.870;9.578;2022-07-23T13:48:16;100955.84;;;34.13;37.84
3544;BME280;1786;52.870;9.578;2022-07-23T13:50:44;100959.50;;;34.47;37.02
3544;BME280;1786;52.870;9.578;2022-07-23T13:53:16;100958.31;;;34.72;36.60
3544;BME280;1786;52.870;9.578;2022-07-23T13:55:43;100951.69;;;33.99;37.74
3544;BME280;1786;52.870;9.578;2022-07-23T13:58:15;100954.03;;;34.19;36.33
3544;BME280;1786;52.870;9.578;2022-07-23T14:00:45;100954.81;;;34.31;36.72
3544;BME280;1786;52.870;9.578;2022-07-23T14:03:20;100949.38;;;33.79;37.15
3544;BME280;1786;52.870;9.578;2022-07-23T14:05:51;100962.34;;;34.53;38.46